createdAt,value
2023-03-01T00:01:22.672Z,79.03
2023-03-01T00:03:54.257Z,79.11
2023-03-01T00:06:26.908Z,79.25
2023-03-01T00:08:57.396Z,79.22
2023-03-01T00:11:30.601Z,78.61
2023-03-01T00:14:02.920Z,78.36
2023-03-01T00:16:39.800Z,78.88
2023-03-01T00:19:13.747Z,79.28
2023-03-01T00:21:44.569Z,79.61
2023-03-01T00:24:15.104Z,79.71
2023-03-01T00:26:47.599Z,79.91
2023-03-01T00:29:20.924Z,80.00
2023-03-01T00:31:53.664Z,80.01
2023-03-01T00:34:24.249Z,80.10
2023-03-01T00:36:54.890Z,80.39
2023-03-01T00:39:27.022Z,79.92
2023-03-01T00:42:01.097Z,79.91
2023-03-01T00:44:33.942Z,79.90
2023-03-01T00:47:04.427Z,79.67
2023-03-01T00:49:34.853Z,80.14
2023-03-01T00:52:05.477Z,79.16
2023-03-01T00:54:36.056Z,78.98
2023-03-01T00:57:06.521Z,79.67
2023-03-01T00:59:37.115Z,79.98
2023-03-01T01:02:09.146Z,80.25
2023-03-01T01:04:39.831Z,80.07
2023-03-01T01:07:11.922Z,80.43
2023-03-01T01:09:43.264Z,80.41
2023-03-01T01:12:14.896Z,80.67
2023-03-01T01:14:47.234Z,80.58
2023-03-01T01:17:17.734Z,80.37
2023-03-01T01:19:48.326Z,80.18
2023-03-01T01:22:19.022Z,80.39
2023-03-01T01:24:50.466Z,79.97
2023-03-01T01:27:21.537Z,80.10
2023-03-01T01:29:52.531Z,80.21
2023-03-01T01:32:23.440Z,80.11
2023-03-01T01:34:56.237Z,80.36
2023-03-01T01:37:28.434Z,80.13
2023-03-01T01:40:00.697Z,80.44
2023-03-01T01:42:31.323Z,80.28
2023-03-01T01:45:31.089Z,79.54
2023-03-01T01:48:04.641Z,79.20
2023-03-01T01:50:40.729Z,79.21
2023-03-01T01:53:14.214Z,79.40
2023-03-01T01:55:50.649Z,79.45
2023-03-01T01:58:23.342Z,79.63
2023-03-01T02:00:54.640Z,80.14
2023-03-01T02:03:30.045Z,80.42
2023-03-01T02:06:08.995Z,80.84
2023-03-01T02:08:42.381Z,81.26
2023-03-01T02:11:16.921Z,81.34
2023-03-01T02:13:49.103Z,81.46
2023-03-01T02:16:20.258Z,81.65
2023-03-01T02:18:52.359Z,81.76
2023-03-01T02:21:37.935Z,81.96
2023-03-01T02:24:11.621Z,82.02
2023-03-01T02:26:51.089Z,82.09
2023-03-01T02:29:22.137Z,81.89
2023-03-01T02:31:59.717Z,81.89
2023-03-01T02:34:32.004Z,81.76
2023-03-01T02:37:08.593Z,81.47
2023-03-01T02:39:43.118Z,81.50
2023-03-01T02:42:17.120Z,81.54
2023-03-01T02:44:47.706Z,81.60
2023-03-01T02:47:18.301Z,81.41
2023-03-01T02:49:48.802Z,81.42
2023-03-01T02:52:52.980Z,81.50
2023-03-01T02:55:24.896Z,81.65
2023-03-01T02:57:58.605Z,81.64
2023-03-01T03:00:32.162Z,81.58
2023-03-01T03:03:02.778Z,81.57
2023-03-01T03:05:34.195Z,81.74
2023-03-01T03:08:05.707Z,81.63
2023-03-01T03:10:38.777Z,81.55
2023-03-01T03:13:13.504Z,81.94
2023-03-01T03:15:45.382Z,81.79
2023-03-01T03:18:17.947Z,81.89
2023-03-01T03:20:48.883Z,81.95
2023-03-01T03:23:19.534Z,81.86
2023-03-01T03:25:53.280Z,82.02
2023-03-01T03:28:23.947Z,82.07
2023-03-01T03:30:54.701Z,82.25
2023-03-01T03:33:25.068Z,82.45
2023-03-01T03:35:55.635Z,82.46
2023-03-01T03:38:26.741Z,82.50
2023-03-01T03:41:03.362Z,82.46
2023-03-01T03:43:36.899Z,82.57
2023-03-01T03:46:08.344Z,82.67
2023-03-01T03:48:42.261Z,82.73
2023-03-01T03:51:15.658Z,82.97
2023-03-01T03:53:47.220Z,83.10
2023-03-01T03:56:17.732Z,83.33
2023-03-01T03:58:48.499Z,83.52
2023-03-01T04:01:19.172Z,83.38
2023-03-01T04:03:49.952Z,83.30
2023-03-01T04:06:20.506Z,83.34
2023-03-01T04:08:54.345Z,83.85
2023-03-01T04:11:27.794Z,83.93
2023-03-01T04:14:01.084Z,83.94
2023-03-01T04:16:32.175Z,83.90
2023-03-01T04:19:03.759Z,84.07
2023-03-01T04:21:34.285Z,84.19
2023-03-01T04:24:07.723Z,84.06
2023-03-01T04:26:38.179Z,84.20
2023-03-01T04:29:08.749Z,83.74
2023-03-01T04:31:39.443Z,83.92
2023-03-01T04:34:10.086Z,83.70
2023-03-01T04:36:40.991Z,83.70
2023-03-01T04:39:13.648Z,83.22
2023-03-01T04:41:47.368Z,83.58
2023-03-01T04:44:20.293Z,83.79
2023-03-01T04:46:51.889Z,83.97
2023-03-01T04:49:22.583Z,84.26
2023-03-01T04:51:53.136Z,84.35
2023-03-01T04:54:23.594Z,84.42
2023-03-01T04:56:55.515Z,84.50
2023-03-01T04:59:25.985Z,84.43
2023-03-01T05:01:58.387Z,84.03
2023-03-01T05:04:31.436Z,83.76
2023-03-01T05:07:01.982Z,82.83
2023-03-01T05:09:32.337Z,82.87
2023-03-01T05:12:03.404Z,82.60
2023-03-01T05:14:34.618Z,82.30
2023-03-01T05:17:05.230Z,82.38
2023-03-01T05:19:36.683Z,81.92
2023-03-01T05:22:07.461Z,82.36
2023-03-01T05:24:40.701Z,82.49
2023-03-01T05:27:11.226Z,82.44
2023-03-01T05:29:41.862Z,82.43
2023-03-01T05:32:14.607Z,82.81
2023-03-01T05:34:46.811Z,83.26
2023-03-01T05:37:17.667Z,83.24
2023-03-01T05:39:50.963Z,83.42
2023-03-01T05:42:22.013Z,83.54
2023-03-01T05:44:52.626Z,83.72
2023-03-01T05:47:26.376Z,83.64
2023-03-01T05:49:57.446Z,83.52
2023-03-01T05:52:28.038Z,83.56
2023-03-01T05:55:00.750Z,83.47
2023-03-01T05:57:31.824Z,83.68
2023-03-01T06:00:02.493Z,83.78
2023-03-01T06:02:33.293Z,83.56
2023-03-01T06:05:03.841Z,83.31
2023-03-01T06:07:37.471Z,83.19
2023-03-01T06:10:09.530Z,82.99
2023-03-01T06:12:41.181Z,82.62
2023-03-01T06:15:15.738Z,82.34
2023-03-01T06:17:48.494Z,82.05
2023-03-01T06:20:22.022Z,81.84
2023-03-01T06:22:52.593Z,81.76
2023-03-01T06:25:25.250Z,81.83
2023-03-01T06:27:59.515Z,81.86
2023-03-01T06:30:30.937Z,82.06
2023-03-01T06:33:03.672Z,82.00
2023-03-01T06:35:34.538Z,82.12
2023-03-01T06:38:06.395Z,81.82
2023-03-01T06:40:37.038Z,82.15
2023-03-01T06:43:08.452Z,82.23
2023-03-01T06:45:39.589Z,82.37
2023-03-01T06:48:12.221Z,82.33
2023-03-01T06:50:44.506Z,82.57
2023-03-01T06:53:15.173Z,82.99
2023-03-01T06:55:47.238Z,82.82
2023-03-01T06:58:17.961Z,82.56
2023-03-01T07:00:51.302Z,82.54
2023-03-01T07:03:23.993Z,81.83
2023-03-01T07:05:55.476Z,81.31
2023-03-01T07:08:26.046Z,81.08
2023-03-01T07:11:00.490Z,80.45
2023-03-01T07:13:32.450Z,80.42
2023-03-01T07:16:04.493Z,80.42
2023-03-01T07:18:35.170Z,80.24
2023-03-01T07:21:14.698Z,79.79
2023-03-01T07:23:45.641Z,79.46
2023-03-01T07:26:16.206Z,79.28
2023-03-01T07:28:47.792Z,78.40
2023-03-01T07:31:18.352Z,78.25
2023-03-01T07:33:48.803Z,78.00
2023-03-01T07:36:19.213Z,77.88
2023-03-01T07:38:50.769Z,77.02
2023-03-01T07:41:21.331Z,77.12
2023-03-01T07:43:53.478Z,76.81
2023-03-01T07:46:27.759Z,76.30
2023-03-01T07:48:59.428Z,75.57
2023-03-01T07:51:29.930Z,74.59
2023-03-01T07:54:00.580Z,72.87
2023-03-01T07:56:31.513Z,72.46
2023-03-01T07:59:02.395Z,72.60
2023-03-01T08:01:33.048Z,72.49
2023-03-01T08:04:03.620Z,70.74
2023-03-01T08:06:36.557Z,69.25
2023-03-01T08:09:07.544Z,68.45
2023-03-01T08:11:38.838Z,67.30
2023-03-01T08:14:09.569Z,66.63
2023-03-01T08:16:51.063Z,67.11
2023-03-01T08:19:21.687Z,66.65
2023-03-01T08:21:52.552Z,65.91
2023-03-01T08:24:24.962Z,64.96
2023-03-01T08:26:56.056Z,64.85
2023-03-01T08:29:29.445Z,65.02
2023-03-01T08:32:00.290Z,64.82
2023-03-01T08:34:32.332Z,64.10
2023-03-01T08:37:03.050Z,63.53
2023-03-01T08:39:33.623Z,62.86
2023-03-01T08:42:05.618Z,61.87
2023-03-01T08:44:36.176Z,61.78
2023-03-01T08:47:06.887Z,61.20
2023-03-01T08:49:37.646Z,61.17
2023-03-01T08:52:08.349Z,60.65
2023-03-01T08:54:38.941Z,59.86
2023-03-01T08:57:11.123Z,60.27
2023-03-01T08:59:42.448Z,59.10
2023-03-01T09:02:16.354Z,59.50
2023-03-01T09:04:47.062Z,59.57
2023-03-01T09:07:19.308Z,59.45
2023-03-01T09:09:49.810Z,59.34
2023-03-01T09:12:20.856Z,58.90
2023-03-01T09:14:51.249Z,58.78
2023-03-01T09:17:23.330Z,58.23
2023-03-01T09:19:55.582Z,58.54
2023-03-01T09:22:26.332Z,57.76
2023-03-01T09:24:57.500Z,57.88
2023-03-01T09:27:28.008Z,57.59
2023-03-01T09:29:58.984Z,56.88
2023-03-01T09:32:32.979Z,56.65
2023-03-01T09:35:06.297Z,57.12
2023-03-01T09:37:38.792Z,56.65
2023-03-01T09:40:19.411Z,56.00
2023-03-01T09:42:58.812Z,56.25
2023-03-01T09:45:32.465Z,56.57
2023-03-01T09:48:05.221Z,56.05
2023-03-01T09:50:43.604Z,56.58
2023-03-01T09:53:23.191Z,56.61
2023-03-01T09:56:06.768Z,56.64
2023-03-01T09:58:55.756Z,54.91
2023-03-01T10:01:36.110Z,55.26
2023-03-01T10:04:29.704Z,55.44
2023-03-01T10:07:19.041Z,54.73
2023-03-01T10:09:50.067Z,54.16
2023-03-01T10:12:24.328Z,53.89
2023-03-01T10:15:03.963Z,53.05
2023-03-01T10:17:40.519Z,52.41
2023-03-01T10:20:23.620Z,52.34
2023-03-01T10:22:56.339Z,51.18
2023-03-01T10:25:43.562Z,50.92
2023-03-01T10:28:23.149Z,51.15
2023-03-01T10:30:54.733Z,50.66
2023-03-01T10:33:31.153Z,50.46
2023-03-01T10:36:03.634Z,50.16
2023-03-01T10:38:53.341Z,49.53
2023-03-01T10:41:25.818Z,49.09
2023-03-01T10:44:03.262Z,48.94
2023-03-01T10:46:38.708Z,48.70
2023-03-01T10:49:18.667Z,47.70
2023-03-01T10:51:51.990Z,47.45
2023-03-01T10:54:32.076Z,46.87
2023-03-01T10:57:07.063Z,46.61
2023-03-01T10:59:40.014Z,47.31
2023-03-01T11:02:31.473Z,46.73
2023-03-01T11:05:04.754Z,46.53
2023-03-01T11:07:38.822Z,46.83
2023-03-01T11:10:13.928Z,46.27
2023-03-01T11:12:44.597Z,45.97
2023-03-01T11:15:31.289Z,44.02
2023-03-01T11:18:13.539Z,41.88
2023-03-01T11:20:39.217Z,41.56
2023-03-01T11:23:15.393Z,42.31
2023-03-01T11:25:50.568Z,41.78
2023-03-01T11:28:24.306Z,42.96
2023-03-01T11:31:12.070Z,42.88
2023-03-01T11:33:45.854Z,43.75
2023-03-01T11:36:31.276Z,43.64
2023-03-01T11:39:28.776Z,43.89
2023-03-01T11:42:18.101Z,44.10
2023-03-01T11:44:39.800Z,43.30
2023-03-01T11:47:30.177Z,42.68
2023-03-01T11:50:24.505Z,42.24
2023-03-01T11:53:06.327Z,40.52
2023-03-01T11:56:02.314Z,40.49
2023-03-01T11:58:41.927Z,39.80
2023-03-01T12:01:42.687Z,39.45
2023-03-01T12:04:29.575Z,40.40
2023-03-01T12:07:09.932Z,39.04
2023-03-01T12:09:46.275Z,40.22
2023-03-01T12:12:48.573Z,39.57
2023-03-01T12:15:55.388Z,39.63
2023-03-01T12:18:34.991Z,39.38
2023-03-01T12:21:15.720Z,40.22
2023-03-01T12:24:04.851Z,40.09
2023-03-01T12:26:38.638Z,40.04
2023-03-01T12:29:28.970Z,39.76
2023-03-01T12:32:20.891Z,39.53
2023-03-01T12:35:31.069Z,38.94
2023-03-01T12:38:21.190Z,39.04
2023-03-01T12:41:19.060Z,39.04
2023-03-01T12:44:02.662Z,39.20
2023-03-01T12:46:57.722Z,39.75
2023-03-01T12:49:37.368Z,36.61
2023-03-01T12:52:26.135Z,37.05
2023-03-01T12:55:00.031Z,37.58
2023-03-01T12:57:38.274Z,37.61
2023-03-01T13:00:16.326Z,38.06
2023-03-01T13:02:55.780Z,37.81
2023-03-01T13:05:35.177Z,37.73
2023-03-01T13:08:25.302Z,37.85
2023-03-01T13:10:59.845Z,38.06
2023-03-01T13:13:31.085Z,37.86
2023-03-01T13:16:23.886Z,37.42
2023-03-01T13:18:57.496Z,36.85
2023-03-01T13:21:33.132Z,36.78
2023-03-01T13:24:04.073Z,36.89
2023-03-01T13:26:37.663Z,37.58
2023-03-01T13:29:12.191Z,36.94
2023-03-01T13:31:45.936Z,36.83
2023-03-01T13:34:55.661Z,37.29
2023-03-01T13:37:30.527Z,37.25
2023-03-01T13:40:05.939Z,37.53
2023-03-01T13:42:40.666Z,37.68
2023-03-01T13:45:37.144Z,37.88
2023-03-01T13:48:19.619Z,37.89
2023-03-01T13:51:05.603Z,38.07
2023-03-01T13:53:40.660Z,38.23
2023-03-01T13:56:23.610Z,37.85
2023-03-01T13:59:06.060Z,37.26
2023-03-01T14:01:38.237Z,37.56
2023-03-01T14:04:25.015Z,37.54
2023-03-01T14:07:13.653Z,37.15
2023-03-01T14:09:47.316Z,37.16
2023-03-01T14:12:30.025Z,37.50
2023-03-01T14:15:22.339Z,38.02
2023-03-01T14:18:16.833Z,38.27
2023-03-01T14:20:49.266Z,38.26
2023-03-01T14:23:25.139Z,38.13
2023-03-01T14:26:00.157Z,37.28
2023-03-01T14:28:35.165Z,38.03
2023-03-01T14:31:26.088Z,38.38
2023-03-01T14:33:57.996Z,39.12
2023-03-01T14:36:31.566Z,39.83
2023-03-01T14:39:04.601Z,40.33
2023-03-01T14:41:37.546Z,39.11
2023-03-01T14:44:11.076Z,39.67
2023-03-01T14:46:44.480Z,40.56
2023-03-01T14:49:31.113Z,41.26
2023-03-01T14:52:04.921Z,42.13
2023-03-01T14:54:43.539Z,41.32
2023-03-01T14:57:22.793Z,41.56
2023-03-01T14:59:59.920Z,41.91
2023-03-01T15:02:34.249Z,41.97
2023-03-01T15:05:09.000Z,41.85
2023-03-01T15:07:42.653Z,42.16
2023-03-01T15:10:23.119Z,42.54
2023-03-01T15:12:54.321Z,42.23
2023-03-01T15:15:33.647Z,42.36
2023-03-01T15:18:07.342Z,42.42
2023-03-01T15:20:37.819Z,42.38
2023-03-01T15:23:11.630Z,42.63
2023-03-01T15:25:45.152Z,42.19
2023-03-01T15:28:18.634Z,42.51
2023-03-01T15:30:52.216Z,42.64
2023-03-01T15:33:29.197Z,42.77
2023-03-01T15:36:02.360Z,43.40
2023-03-01T15:38:55.232Z,43.59
2023-03-01T15:41:34.484Z,43.49
2023-03-01T15:44:07.974Z,43.31
2023-03-01T15:46:39.116Z,43.62
2023-03-01T15:49:30.969Z,43.98
2023-03-01T15:52:01.542Z,44.49
2023-03-01T15:54:32.257Z,44.46
2023-03-01T15:57:03.313Z,44.53
2023-03-01T15:59:33.818Z,44.88
2023-03-01T16:02:05.818Z,44.23
2023-03-01T16:04:36.473Z,44.60
2023-03-01T16:07:07.564Z,44.92
2023-03-01T16:09:38.050Z,45.61
2023-03-01T16:12:10.100Z,46.12
2023-03-01T16:14:40.616Z,45.77
2023-03-01T16:17:11.352Z,45.59
2023-03-01T16:19:42.070Z,46.38
2023-03-01T16:22:13.061Z,46.43
2023-03-01T16:24:43.840Z,46.50
2023-03-01T16:27:16.352Z,47.26
2023-03-01T16:29:48.512Z,47.70
2023-03-01T16:32:18.975Z,47.72
2023-03-01T16:34:50.450Z,48.44
2023-03-01T16:37:22.067Z,48.92
2023-03-01T16:39:54.035Z,49.68
2023-03-01T16:42:24.863Z,50.41
2023-03-01T16:44:58.777Z,50.83
2023-03-01T16:47:30.456Z,50.88
2023-03-01T16:50:01.117Z,51.74
2023-03-01T16:52:31.750Z,51.03
2023-03-01T16:55:04.534Z,51.31
2023-03-01T16:57:40.362Z,51.06
2023-03-01T17:00:15.905Z,51.15
2023-03-01T17:02:46.614Z,51.12
2023-03-01T17:05:18.454Z,51.43
2023-03-01T17:07:48.913Z,52.16
2023-03-01T17:10:20.085Z,52.43
2023-03-01T17:12:51.775Z,52.25
2023-03-01T17:15:22.308Z,51.82
2023-03-01T17:17:52.771Z,52.24
2023-03-01T17:20:23.331Z,52.13
2023-03-01T17:22:53.679Z,52.70
2023-03-01T17:25:24.325Z,53.31
2023-03-01T17:27:56.507Z,53.61
2023-03-01T17:30:28.288Z,54.56
2023-03-01T17:33:00.788Z,55.35
2023-03-01T17:35:32.063Z,55.92
2023-03-01T17:38:02.549Z,56.46
2023-03-01T17:40:37.738Z,56.29
2023-03-01T17:43:09.917Z,56.90
2023-03-01T17:45:41.194Z,57.40
2023-03-01T17:48:11.897Z,57.67
2023-03-01T17:50:43.332Z,57.97
2023-03-01T17:53:14.638Z,58.58
2023-03-01T17:55:46.260Z,59.10
2023-03-01T17:58:20.210Z,59.01
2023-03-01T18:00:51.852Z,59.03
2023-03-01T18:03:22.197Z,59.98
2023-03-01T18:05:54.456Z,60.43
2023-03-01T18:08:26.263Z,60.30
2023-03-01T18:11:01.027Z,59.55
2023-03-01T18:13:31.592Z,60.55
2023-03-01T18:16:04.121Z,61.35
2023-03-01T18:18:35.178Z,61.85
2023-03-01T18:21:08.481Z,62.04
2023-03-01T18:23:40.269Z,62.11
2023-03-01T18:26:15.688Z,62.01
2023-03-01T18:28:48.115Z,62.56
2023-03-01T18:31:22.971Z,61.86
2023-03-01T18:33:55.675Z,62.36
2023-03-01T18:36:29.083Z,62.35
2023-03-01T18:39:00.022Z,62.65
2023-03-01T18:41:32.811Z,63.19
2023-03-01T18:44:05.197Z,63.34
2023-03-01T18:46:38.802Z,63.35
2023-03-01T18:49:12.206Z,63.42
2023-03-01T18:51:44.038Z,63.39
2023-03-01T18:54:14.579Z,63.27
2023-03-01T18:56:45.097Z,63.89
2023-03-01T18:59:18.880Z,64.19
2023-03-01T19:01:49.378Z,64.39
2023-03-01T19:04:19.885Z,64.73
2023-03-01T19:06:50.470Z,63.94
2023-03-01T19:09:22.568Z,64.60
2023-03-01T19:11:53.076Z,64.83
2023-03-01T19:14:28.296Z,63.80
2023-03-01T19:17:00.888Z,64.50
2023-03-01T19:19:31.442Z,65.15
2023-03-01T19:22:08.571Z,65.58
2023-03-01T19:24:34.766Z,65.92
2023-03-01T19:27:05.533Z,66.40
2023-03-01T19:29:37.801Z,66.11
2023-03-01T19:32:09.847Z,66.49
2023-03-01T19:34:41.648Z,66.63
2023-03-01T19:37:12.950Z,66.96
2023-03-01T19:39:44.343Z,67.24
2023-03-01T19:42:14.842Z,67.68
2023-03-01T19:44:45.352Z,68.02
2023-03-01T19:47:15.990Z,68.53
2023-03-01T19:49:46.971Z,69.02
2023-03-01T19:52:19.893Z,69.00
2023-03-01T19:54:53.823Z,69.18
2023-03-01T19:57:24.553Z,69.59
2023-03-01T19:59:55.043Z,69.54
2023-03-01T20:02:27.846Z,69.22
2023-03-01T20:04:58.824Z,69.42
2023-03-01T20:07:29.341Z,69.48
2023-03-01T20:09:59.853Z,69.83
2023-03-01T20:12:31.521Z,70.11
2023-03-01T20:15:02.608Z,69.93
2023-03-01T20:17:33.192Z,70.06
2023-03-01T20:20:05.533Z,70.28
2023-03-01T20:22:38.453Z,70.47
2023-03-01T20:25:11.903Z,70.72
2023-03-01T20:27:44.138Z,70.48
2023-03-01T20:30:16.860Z,70.38
2023-03-01T20:32:48.723Z,70.55
2023-03-01T20:35:21.738Z,71.02
2023-03-01T20:37:55.070Z,70.58
2023-03-01T20:40:27.885Z,70.79
2023-03-01T20:43:00.415Z,71.04
2023-03-01T20:45:31.051Z,71.24
2023-03-01T20:48:01.549Z,71.09
2023-03-01T20:50:33.343Z,71.06
2023-03-01T20:53:04.031Z,71.47
2023-03-01T20:55:34.998Z,71.81
2023-03-01T20:58:07.316Z,72.05
2023-03-01T21:00:38.500Z,72.53
2023-03-01T21:03:09.605Z,73.31
2023-03-01T21:05:42.858Z,73.65
2023-03-01T21:08:16.360Z,73.72
2023-03-01T21:10:53.891Z,74.02
2023-03-01T21:13:33.034Z,73.77
2023-03-01T21:16:06.499Z,74.00
2023-03-01T21:18:37.024Z,74.10
2023-03-01T21:21:12.636Z,74.37
2023-03-01T21:23:44.809Z,74.49
2023-03-01T21:26:27.487Z,74.45
2023-03-01T21:29:02.645Z,74.94
2023-03-01T21:31:36.348Z,74.84
2023-03-01T21:34:15.928Z,75.37
2023-03-01T21:36:47.162Z,75.70
2023-03-01T21:39:18.000Z,75.98
2023-03-01T21:41:52.474Z,76.08
2023-03-01T21:44:23.790Z,76.46
2023-03-01T21:46:55.112Z,76.67
2023-03-01T21:49:26.932Z,76.84
2023-03-01T21:51:57.520Z,77.09
2023-03-01T21:54:28.548Z,77.32
2023-03-01T21:56:59.012Z,77.32
2023-03-01T21:59:29.928Z,77.73
2023-03-01T22:02:00.658Z,78.08
2023-03-01T22:04:31.253Z,77.96
2023-03-01T22:07:04.348Z,77.88
2023-03-01T22:09:36.297Z,78.08
2023-03-01T22:12:08.841Z,78.01
2023-03-01T22:14:41.065Z,77.94
2023-03-01T22:17:12.079Z,78.06
2023-03-01T22:19:42.476Z,78.15
2023-03-01T22:22:25.521Z,78.13
2023-03-01T22:24:56.039Z,77.71
2023-03-01T22:27:27.633Z,78.27
2023-03-01T22:29:58.385Z,78.37
2023-03-01T22:32:29.010Z,78.22
2023-03-01T22:35:00.079Z,78.30
2023-03-01T22:37:30.577Z,78.21
2023-03-01T22:40:01.331Z,78.09
2023-03-01T22:42:32.649Z,77.95
2023-03-01T22:45:06.785Z,77.91
2023-03-01T22:47:39.668Z,78.22
2023-03-01T22:50:12.764Z,78.21
2023-03-01T22:52:43.696Z,78.45
2023-03-01T22:55:14.877Z,78.73
2023-03-01T22:57:45.755Z,78.59
2023-03-01T23:00:17.073Z,78.23
2023-03-01T23:02:47.734Z,77.89
2023-03-01T23:05:18.829Z,77.88
2023-03-01T23:07:49.659Z,78.10
2023-03-01T23:10:22.437Z,78.53
2023-03-01T23:12:57.595Z,78.42
2023-03-01T23:15:28.126Z,78.79
2023-03-01T23:18:00.226Z,78.90
2023-03-01T23:20:30.772Z,79.18
2023-03-01T23:23:01.574Z,79.15
2023-03-01T23:25:33.746Z,79.32
2023-03-01T23:28:04.593Z,79.16
2023-03-01T23:30:35.357Z,79.47
2023-03-01T23:33:05.834Z,79.21
2023-03-01T23:35:39.446Z,79.22
2023-03-01T23:38:10.156Z,79.54
2023-03-01T23:40:42.365Z,79.53
2023-03-01T23:43:12.867Z,79.06
2023-03-01T23:45:43.886Z,79.08
2023-03-01T23:48:15.605Z,78.96
2023-03-01T23:50:47.069Z,78.34
2023-03-01T23:53:22.282Z,78.36
2023-03-01T23:55:56.291Z,78.29
2023-03-01T23:58:30.909Z,78.16
